Time;durP1;ratioP1;P1;durP2;ratioP2;P2;SDS_P1;SDS_P2;PMS_P1;PMS_P2;Temp;Humidity;BMP_temperature;BMP_pressure;BME280_temperature;BME280_humidity;BME280_pressure;Samples;Min_cycle;Max_cycle;Signal;HPM_P1;HPM_P2
2023/01/30 00:01:40;;;;;;;;;;;-6.30;99.90;;;;;;5056213;28;19920;-73
2023/01/30 00:04:05;;;;;;;;;;;-6.20;99.90;;;;;;5056182;28;19931;-73
2023/01/30 00:06:31;;;;;;;;;;;-6.30;99.90;;;;;;5056460;28;20354;-74
2023/01/30 00:08:57;;;;;;;;;;;-6.30;99.90;;;;;;5054703;28;19920;-73
2023/01/30 00:11:22;;;;;;;;;;;-6.30;99.90;;;;;;5056001;28;19909;-73
2023/01/30 00:13:49;;;;;;;;;;;-6.30;99.90;;;;;;5054983;28;19909;-74
2023/01/30 00:16:15;;;;;;;;;;;-6.30;99.90;;;;;;5056332;28;19919;-73
2023/01/30 00:18:41;;;;;;;;;;;-6.30;99.90;;;;;;5055774;28;20361;-74
2023/01/30 00:21:08;;;;;;;;;;;-6.30;99.90;;;;;;5056441;28;19945;-73
2023/01/30 00:23:34;;;;;;;;;;;-6.30;99.90;;;;;;5055838;28;19913;-74
2023/01/30 00:26:00;;;;;;;;;;;-6.30;99.90;;;;;;5055591;28;19909;-74
2023/01/30 00:28:25;;;;;;;;;;;-6.40;99.90;;;;;;5055400;28;19917;-74
2023/01/30 00:30:51;;;;;;;;;;;-6.40;99.90;;;;;;5055647;28;19955;-74
2023/01/30 00:33:18;;;;;;;;;;;-6.50;99.90;;;;;;5056199;28;19920;-74
2023/01/30 00:35:47;;;;;;;;;;;-6.60;99.90;;;;;;5054282;28;19913;-74
2023/01/30 00:38:13;;;;;;;;;;;-6.70;99.90;;;;;;5055399;28;20429;-74
2023/01/30 00:40:38;;;;;;;;;;;-6.70;99.90;;;;;;5055449;28;19988;-74
2023/01/30 00:48:33;;;;;;;;;;;-6.90;99.90;;;;;;5055584;28;19920;-74
2023/01/30 00:50:59;;;;;;;;;;;-6.90;99.90;;;;;;5055591;28;20304;-74
2023/01/30 00:53:24;;;;;;;;;;;-6.90;99.90;;;;;;5055224;28;19955;-73
2023/01/30 00:55:51;;;;;;;;;;;-6.90;99.90;;;;;;5055170;28;20357;-74
2023/01/30 00:58:17;;;;;;;;;;;-6.90;99.90;;;;;;5054851;28;20266;-74
2023/01/30 01:00:43;;;;;;;;;;;-6.80;99.90;;;;;;5055087;28;19908;-74
2023/01/30 01:03:08;;;;;;;;;;;-6.80;99.90;;;;;;5055032;28;19913;-74
2023/01/30 01:05:34;;;;;;;;;;;-6.80;99.90;;;;;;5053737;28;19924;-74
2023/01/30 01:08:00;;;;;;;;;;;-6.80;99.90;;;;;;5055281;28;20273;-74
2023/01/30 01:10:25;;;;;;;;;;;-6.90;99.90;;;;;;5054832;28;19917;-73
2023/01/30 01:12:51;;;;;;;;;;;-7.00;99.90;;;;;;5054513;28;19909;-73
2023/01/30 01:15:18;;;;;;;;;;;-7.10;99.90;;;;;;5055150;28;20439;-74
2023/01/30 01:17:43;;;;;;;;;;;-7.20;99.90;;;;;;5055077;28;19959;-73
2023/01/30 01:20:09;;;;;;;;;;;-7.20;99.90;;;;;;5054553;28;19916;-74
2023/01/30 01:22:35;;;;;;;;;;;-7.10;99.90;;;;;;5054967;28;19913;-74
2023/01/30 01:25:01;;;;;;;;;;;-7.10;99.90;;;;;;5053699;28;19913;-74
2023/01/30 01:27:27;;;;;;;;;;;-7.10;99.90;;;;;;5054528;28;19952;-74
2023/01/30 01:29:53;;;;;;;;;;;-7.00;99.90;;;;;;5054179;28;20292;-74
2023/01/30 01:32:19;;;;;;;;;;;-7.00;99.90;;;;;;5054742;28;19912;-74
2023/01/30 01:34:44;;;;;;;;;;;-7.00;99.90;;;;;;5055069;28;19920;-74
2023/01/30 01:37:10;;;;;;;;;;;-7.00;99.90;;;;;;5054329;28;19999;-74
2023/01/30 01:42:21;;;;;;;;;;;-7.00;99.90;;;;;;5054719;28;19959;-73
2023/01/30 01:44:58;;;;;;;;;;;-7.10;99.90;;;;;;5053998;28;19916;-74
2023/01/30 01:47:24;;;;;;;;;;;-7.10;99.90;;;;;;5054139;28;19947;-74
2023/01/30 01:49:50;;;;;;;;;;;-7.10;99.90;;;;;;5054110;28;19960;-73
2023/01/30 01:52:15;;;;;;;;;;;-7.00;99.90;;;;;;5054095;28;19913;-74
2023/01/30 01:54:46;;;;;;;;;;;-7.00;99.90;;;;;;5054178;28;19913;-73
2023/01/30 01:57:17;;;;;;;;;;;-7.10;99.90;;;;;;5054061;28;19916;-73
2023/01/30 01:59:51;;;;;;;;;;;-7.20;99.90;;;;;;5053754;28;19913;-73
2023/01/30 02:02:17;;;;;;;;;;;-7.20;99.90;;;;;;5054275;28;19995;-73
2023/01/30 02:05:03;;;;;;;;;;;-7.20;99.90;;;;;;5052881;28;19908;-73
2023/01/30 02:07:32;;;;;;;;;;;-7.20;99.90;;;;;;5053893;28;20354;-73
2023/01/30 02:09:58;;;;;;;;;;;-7.20;99.90;;;;;;5053784;28;20039;-73
2023/01/30 02:12:24;;;;;;;;;;;-7.30;99.90;;;;;;5053012;28;20023;-74
2023/01/30 02:14:52;;;;;;;;;;;-7.30;99.90;;;;;;5053420;28;19959;-74
2023/01/30 02:17:19;;;;;;;;;;;-7.30;99.90;;;;;;5053680;28;20281;-73
2023/01/30 02:20:05;;;;;;;;;;;-7.30;99.90;;;;;;5053277;28;20339;-74
2023/01/30 02:22:30;;;;;;;;;;;-7.30;99.90;;;;;;5053596;28;19913;-74
2023/01/30 02:25:15;;;;;;;;;;;-7.30;99.90;;;;;;5053484;28;19916;-74
2023/01/30 02:27:40;;;;;;;;;;;-7.30;99.90;;;;;;5052568;28;19959;-73
2023/01/30 02:30:12;;;;;;;;;;;-7.20;99.90;;;;;;5053053;28;19917;-73
2023/01/30 02:32:37;;;;;;;;;;;-7.20;99.90;;;;;;5053541;28;19916;-73
2023/01/30 02:35:06;;;;;;;;;;;-7.20;99.90;;;;;;5052997;28;20300;-73
2023/01/30 02:37:39;;;;;;;;;;;-7.20;99.90;;;;;;5057196;28;19916;-73
2023/01/30 02:40:23;;;;;;;;;;;-7.30;99.90;;;;;;5057527;28;19923;-73
2023/01/30 02:43:07;;;;;;;;;;;-7.20;99.90;;;;;;5057302;28;19916;-75
2023/01/30 02:45:35;;;;;;;;;;;-7.30;99.90;;;;;;5057620;28;20042;-74
2023/01/30 02:48:01;;;;;;;;;;;-7.30;99.90;;;;;;5057683;28;19913;-74
2023/01/30 02:50:29;;;;;;;;;;;-7.30;99.90;;;;;;5057540;28;19916;-74
2023/01/30 02:52:56;;;;;;;;;;;-7.30;99.90;;;;;;5057357;28;19912;-74
2023/01/30 02:55:23;;;;;;;;;;;-7.30;99.90;;;;;;5057262;28;20356;-74
2023/01/30 02:57:49;;;;;;;;;;;-7.30;99.90;;;;;;5057375;28;19995;-74
2023/01/30 03:00:17;;;;;;;;;;;-7.30;99.90;;;;;;5056966;28;20090;-74
2023/01/30 03:02:46;;;;;;;;;;;-7.40;99.90;;;;;;5057863;28;19948;-74
2023/01/30 03:05:11;;;;;;;;;;;-7.50;99.90;;;;;;5057269;28;19909;-74
2023/01/30 03:07:42;;;;;;;;;;;-7.50;99.90;;;;;;5057226;28;20284;-74
2023/01/30 03:10:26;;;;;;;;;;;-7.60;99.90;;;;;;5057188;28;19909;-74
2023/01/30 03:12:57;;;;;;;;;;;-7.70;99.90;;;;;;5056885;28;20320;-75
2023/01/30 03:15:23;;;;;;;;;;;-7.70;99.90;;;;;;5057699;28;20379;-74
2023/01/30 03:17:48;;;;;;;;;;;-7.70;99.90;;;;;;5057075;28;20011;-74
2023/01/30 03:20:15;;;;;;;;;;;-7.70;99.90;;;;;;5057200;28;19917;-74
2023/01/30 03:22:40;;;;;;;;;;;-7.80;99.90;;;;;;5057305;28;19913;-74
2023/01/30 03:25:07;;;;;;;;;;;-7.80;99.90;;;;;;5057221;28;20421;-74
2023/01/30 03:27:34;;;;;;;;;;;-7.80;99.90;;;;;;5056881;28;20003;-74
2023/01/30 03:29:59;;;;;;;;;;;-7.80;99.90;;;;;;5056493;28;19924;-74
2023/01/30 03:32:25;;;;;;;;;;;-7.80;99.90;;;;;;5056785;28;19909;-74
2023/01/30 03:34:50;;;;;;;;;;;-7.80;99.90;;;;;;5056742;28;19975;-74
2023/01/30 03:37:16;;;;;;;;;;;-7.80;99.90;;;;;;5056257;28;19920;-74
2023/01/30 03:39:42;;;;;;;;;;;-7.90;99.90;;;;;;5056653;28;19924;-74
2023/01/30 03:42:08;;;;;;;;;;;-7.90;99.90;;;;;;5039054;28;19920;-74
2023/01/30 03:44:34;;;;;;;;;;;-8.00;99.90;;;;;;5068415;28;19972;-74
2023/01/30 03:46:59;;;;;;;;;;;-8.00;99.90;;;;;;5068393;28;19928;-73
2023/01/30 03:49:25;;;;;;;;;;;-8.00;99.90;;;;;;5068981;28;19920;-74
2023/01/30 03:51:50;;;;;;;;;;;-8.00;99.90;;;;;;5067203;28;20384;-74
2023/01/30 03:54:16;;;;;;;;;;;-8.00;99.90;;;;;;5069037;28;20315;-74
2023/01/30 03:56:41;;;;;;;;;;;-7.90;99.90;;;;;;5069120;28;19963;-74
2023/01/30 03:59:07;;;;;;;;;;;-7.90;99.90;;;;;;5068430;28;19919;-74
2023/01/30 04:01:33;;;;;;;;;;;-7.90;99.90;;;;;;5069060;28;19977;-74
2023/01/30 04:03:58;;;;;;;;;;;-8.00;99.90;;;;;;5068982;28;19913;-74
2023/01/30 04:06:24;;;;;;;;;;;-8.00;99.90;;;;;;5069156;28;19913;-74
2023/01/30 04:08:52;;;;;;;;;;;-8.10;99.90;;;;;;5068475;28;19913;-74
2023/01/30 04:11:18;;;;;;;;;;;-8.10;99.90;;;;;;5058209;28;19913;-74
2023/01/30 04:13:43;;;;;;;;;;;-8.20;99.90;;;;;;5055777;28;19912;-74
2023/01/30 04:16:13;;;;;;;;;;;-8.30;99.90;;;;;;5056099;28;20433;-74
2023/01/30 04:18:38;;;;;;;;;;;-8.30;99.90;;;;;;5056197;28;19912;-74
2023/01/30 04:21:04;;;;;;;;;;;-8.30;99.90;;;;;;5056187;28;19917;-74
2023/01/30 04:23:30;;;;;;;;;;;-8.30;99.90;;;;;;5055899;28;19956;-74
2023/01/30 04:25:55;;;;;;;;;;;-8.30;99.90;;;;;;5055952;28;20376;-74
2023/01/30 04:28:21;;;;;;;;;;;-8.20;99.90;;;;;;5055685;28;19967;-74
2023/01/30 04:30:46;;;;;;;;;;;-8.20;99.90;;;;;;5055955;28;19917;-74
2023/01/30 04:33:12;;;;;;;;;;;-8.20;99.90;;;;;;5055626;28;19912;-74
2023/01/30 04:35:37;;;;;;;;;;;-8.20;99.90;;;;;;5055852;28;19914;-74
2023/01/30 04:38:03;;;;;;;;;;;-8.30;99.90;;;;;;5055469;28;19955;-74
2023/01/30 04:40:28;;;;;;;;;;;-8.30;99.90;;;;;;5055078;28;19917;-74
2023/01/30 04:42:54;;;;;;;;;;;-8.20;99.90;;;;;;5055310;28;20011;-74
2023/01/30 04:45:19;;;;;;;;;;;-8.20;99.90;;;;;;5055116;28;19913;-74
2023/01/30 04:47:45;;;;;;;;;;;-8.10;99.90;;;;;;5055364;28;19912;-74
2023/01/30 04:50:10;;;;;;;;;;;-8.10;99.90;;;;;;5055496;28;19915;-74
2023/01/30 04:52:36;;;;;;;;;;;-8.10;99.90;;;;;;5055266;28;20017;-74
2023/01/30 04:55:02;;;;;;;;;;;-8.20;99.90;;;;;;5055431;28;19913;-74
2023/01/30 04:57:27;;;;;;;;;;;-8.20;99.90;;;;;;5055107;28;19920;-74
2023/01/30 04:59:53;;;;;;;;;;;-8.20;99.90;;;;;;5054573;28;19919;-72
2023/01/30 05:02:18;;;;;;;;;;;-8.30;99.90;;;;;;5055586;28;19946;-72
2023/01/30 05:04:44;;;;;;;;;;;-8.30;99.90;;;;;;5055047;28;20530;-73
2023/01/30 05:07:10;;;;;;;;;;;-8.30;99.90;;;;;;5054892;28;19977;-75
2023/01/30 05:09:36;;;;;;;;;;;-8.20;99.90;;;;;;5052769;28;20293;-75
2023/01/30 05:12:01;;;;;;;;;;;-8.20;99.90;;;;;;5054621;28;19916;-75
2023/01/30 05:14:27;;;;;;;;;;;-8.20;99.90;;;;;;5054571;28;20294;-75
2023/01/30 05:16:52;;;;;;;;;;;-8.20;99.90;;;;;;5054742;28;20319;-75
2023/01/30 05:19:18;;;;;;;;;;;-8.20;99.90;;;;;;5054777;28;19917;-75
2023/01/30 05:21:43;;;;;;;;;;;-8.20;99.90;;;;;;5054968;28;19964;-75
2023/01/30 05:24:09;;;;;;;;;;;-8.20;99.90;;;;;;5054665;28;19913;-75
2023/01/30 05:26:35;;;;;;;;;;;-8.20;99.90;;;;;;5053342;28;19917;-75
2023/01/30 05:29:01;;;;;;;;;;;-8.10;99.90;;;;;;5054434;28;19928;-75
2023/01/30 05:31:27;;;;;;;;;;;-8.10;99.90;;;;;;5054503;28;20356;-75
2023/01/30 05:33:52;;;;;;;;;;;-8.10;99.90;;;;;;5054981;28;19944;-75
2023/01/30 05:36:19;;;;;;;;;;;-8.00;99.90;;;;;;5054457;28;19913;-75
2023/01/30 05:38:45;;;;;;;;;;;-8.00;99.90;;;;;;5054281;28;19917;-75
2023/01/30 05:41:11;;;;;;;;;;;-8.00;99.90;;;;;;5054898;28;19955;-74
2023/01/30 05:43:37;;;;;;;;;;;-7.90;99.90;;;;;;5052686;28;19959;-75
2023/01/30 05:46:03;;;;;;;;;;;-7.90;99.90;;;;;;5053014;28;19955;-75
2023/01/30 05:48:29;;;;;;;;;;;-7.90;99.90;;;;;;5054430;28;19948;-75
2023/01/30 05:50:55;;;;;;;;;;;-7.90;99.90;;;;;;5054512;28;20339;-75
2023/01/30 05:53:22;;;;;;;;;;;-7.80;99.90;;;;;;5054219;28;19909;-75
2023/01/30 05:55:54;;;;;;;;;;;-7.80;99.90;;;;;;5053966;28;19920;-75
2023/01/30 05:58:19;;;;;;;;;;;-7.80;99.90;;;;;;5052927;28;20399;-75
2023/01/30 06:00:45;;;;;;;;;;;-7.70;99.90;;;;;;5053842;28;19917;-75
2023/01/30 06:03:10;;;;;;;;;;;-7.70;99.90;;;;;;5052664;28;19913;-75
2023/01/30 06:05:36;;;;;;;;;;;-7.70;99.90;;;;;;5054499;28;20015;-74
2023/01/30 06:08:02;;;;;;;;;;;-7.60;99.90;;;;;;5053484;28;20388;-74
2023/01/30 06:10:27;;;;;;;;;;;-7.60;99.90;;;;;;5051598;28;19939;-74
2023/01/30 06:12:53;;;;;;;;;;;-7.60;99.90;;;;;;5053817;28;20342;-74
2023/01/30 06:15:18;;;;;;;;;;;-7.60;99.90;;;;;;5053636;28;19952;-74
2023/01/30 06:17:44;;;;;;;;;;;-7.60;99.90;;;;;;5053725;28;19978;-74
2023/01/30 06:20:10;;;;;;;;;;;-7.60;99.90;;;;;;5053590;28;19924;-75
2023/01/30 06:22:36;;;;;;;;;;;-7.60;99.90;;;;;;5053781;28;19913;-74
2023/01/30 06:25:02;;;;;;;;;;;-7.60;99.90;;;;;;5053748;28;19982;-75
2023/01/30 06:27:28;;;;;;;;;;;-7.60;99.90;;;;;;5052224;28;20300;-75
2023/01/30 06:29:53;;;;;;;;;;;-7.60;99.90;;;;;;5053263;28;20365;-75
2023/01/30 06:32:19;;;;;;;;;;;-7.60;99.90;;;;;;5053684;28;20381;-75
2023/01/30 06:34:44;;;;;;;;;;;-7.60;99.90;;;;;;5053624;28;19938;-75
2023/01/30 06:37:10;;;;;;;;;;;-7.50;99.90;;;;;;5053739;28;19940;-75
2023/01/30 06:39:35;;;;;;;;;;;-7.50;99.90;;;;;;5053535;28;19917;-75
2023/01/30 06:42:01;;;;;;;;;;;-7.50;99.90;;;;;;5053410;28;19970;-75
2023/01/30 06:44:26;;;;;;;;;;;-7.60;99.90;;;;;;5053584;28;19913;-75
2023/01/30 06:46:52;;;;;;;;;;;-7.60;99.90;;;;;;5053759;28;19917;-75
2023/01/30 06:49:17;;;;;;;;;;;-7.60;99.90;;;;;;5053385;28;19966;-75
2023/01/30 06:51:43;;;;;;;;;;;-7.60;99.90;;;;;;5053722;28;19913;-75
2023/01/30 06:54:08;;;;;;;;;;;-7.60;99.90;;;;;;5053492;28;19920;-75
2023/01/30 06:56:34;;;;;;;;;;;-7.60;99.90;;;;;;5053379;28;19917;-75
2023/01/30 06:59:00;;;;;;;;;;;-7.60;99.90;;;;;;5052948;28;19923;-75
2023/01/30 07:01:25;;;;;;;;;;;-7.60;99.90;;;;;;5053509;28;19959;-75
2023/01/30 07:03:51;;;;;;;;;;;-7.60;99.90;;;;;;5053773;28;20367;-75
2023/01/30 07:06:16;;;;;;;;;;;-7.60;99.90;;;;;;5053269;28;19917;-75
2023/01/30 07:08:43;;;;;;;;;;;-7.60;99.90;;;;;;5052050;28;20008;-74
2023/01/30 07:11:09;;;;;;;;;;;-7.60;99.90;;;;;;5053558;28;19912;-74
2023/01/30 07:13:34;;;;;;;;;;;-7.60;99.90;;;;;;5051421;28;20385;-74
2023/01/30 07:16:00;;;;;;;;;;;-7.60;99.90;;;;;;5053449;28;20038;-74
2023/01/30 07:18:26;;;;;;;;;;;-7.60;99.90;;;;;;5053105;28;19955;-75
2023/01/30 07:20:51;;;;;;;;;;;-7.60;99.90;;;;;;5053274;28;19948;-74
2023/01/30 07:23:17;;;;;;;;;;;-7.60;99.90;;;;;;5056078;28;20023;-74
2023/01/30 07:25:43;;;;;;;;;;;-7.60;99.90;;;;;;5055580;28;19920;-74
2023/01/30 07:28:08;;;;;;;;;;;-7.60;99.90;;;;;;5055690;28;19915;-74
2023/01/30 07:30:34;;;;;;;;;;;-7.60;99.90;;;;;;5056863;28;19916;-74
2023/01/30 07:33:01;;;;;;;;;;;-7.60;99.90;;;;;;5057275;28;19913;-74
2023/01/30 07:35:28;;;;;;;;;;;-7.60;99.90;;;;;;5057083;28;19913;-74
2023/01/30 07:37:54;;;;;;;;;;;-7.60;99.90;;;;;;5055473;28;19959;-74
2023/01/30 07:40:20;;;;;;;;;;;-7.70;99.90;;;;;;5055297;28;19917;-76
2023/01/30 07:43:01;;;;;;;;;;;-7.70;99.90;;;;;;5056629;28;19913;-76
2023/01/30 07:45:28;;;;;;;;;;;-7.60;99.90;;;;;;5056638;28;19909;-74
2023/01/30 07:47:54;;;;;;;;;;;-7.50;99.90;;;;;;5056713;28;19909;-74
2023/01/30 07:50:19;;;;;;;;;;;-7.40;99.90;;;;;;5056510;28;20288;-74
2023/01/30 07:52:45;;;;;;;;;;;-7.30;99.90;;;;;;5056455;28;19955;-74
2023/01/30 07:55:10;;;;;;;;;;;-7.30;99.90;;;;;;5056797;28;20320;-74
2023/01/30 07:57:36;;;;;;;;;;;-7.20;99.90;;;;;;5056820;28;19951;-74
2023/01/30 08:00:03;;;;;;;;;;;-7.20;99.90;;;;;;5056614;28;19917;-73
2023/01/30 08:02:29;;;;;;;;;;;-7.10;99.90;;;;;;5056570;28;20360;-74
2023/01/30 08:04:54;;;;;;;;;;;-7.10;99.90;;;;;;5057234;28;19955;-74
2023/01/30 08:07:20;;;;;;;;;;;-7.20;99.90;;;;;;5055288;28;20285;-73
2023/01/30 08:09:45;;;;;;;;;;;-7.20;99.90;;;;;;5057085;28;20288;-74
2023/01/30 08:12:11;;;;;;;;;;;-7.20;99.90;;;;;;5055543;28;19913;-74
2023/01/30 08:14:36;;;;;;;;;;;-7.20;99.90;;;;;;5057334;28;19913;-72
2023/01/30 08:17:02;;;;;;;;;;;-7.10;99.90;;;;;;5056867;28;19913;-72
2023/01/30 08:19:27;;;;;;;;;;;-7.10;99.90;;;;;;5057413;28;19917;-74
2023/01/30 08:21:53;;;;;;;;;;;-7.10;99.90;;;;;;5056663;28;20373;-71
2023/01/30 08:24:19;;;;;;;;;;;-7.00;99.90;;;;;;5056627;28;20318;-75
2023/01/30 08:26:46;;;;;;;;;;;-7.00;99.90;;;;;;5054831;28;19917;-75
2023/01/30 08:29:12;;;;;;;;;;;-6.90;99.90;;;;;;5056127;28;19928;-74
2023/01/30 08:31:37;;;;;;;;;;;-6.90;99.90;;;;;;5054892;28;19912;-74
2023/01/30 08:34:03;;;;;;;;;;;-6.80;99.90;;;;;;5055286;28;19923;-74
2023/01/30 08:36:28;;;;;;;;;;;-6.70;99.90;;;;;;5054315;28;20011;-74
2023/01/30 08:38:54;;;;;;;;;;;-6.60;99.90;;;;;;5055505;28;19939;-74
2023/01/30 08:41:19;;;;;;;;;;;-6.50;99.90;;;;;;5037756;28;20000;-74
2023/01/30 08:43:45;;;;;;;;;;;-6.50;99.90;;;;;;5055318;28;19917;-73
2023/01/30 08:46:11;;;;;;;;;;;-6.40;99.90;;;;;;5055658;28;19917;-75
2023/01/30 08:48:39;;;;;;;;;;;-6.30;99.90;;;;;;5055338;28;19908;-75
2023/01/30 08:51:05;;;;;;;;;;;-6.30;99.90;;;;;;5055470;28;19920;-76
2023/01/30 08:53:30;;;;;;;;;;;-6.30;99.90;;;;;;5055315;28;19909;-76
2023/01/30 08:55:56;;;;;;;;;;;-6.30;99.90;;;;;;5055378;28;19913;-76
2023/01/30 08:58:21;;;;;;;;;;;-6.30;99.90;;;;;;5055088;28;19919;-76
2023/01/30 09:00:49;;;;;;;;;;;-6.30;99.90;;;;;;5055288;28;20336;-76
2023/01/30 09:03:14;;;;;;;;;;;-6.30;99.90;;;;;;5055299;28;19913;-76
2023/01/30 09:05:40;;;;;;;;;;;-6.30;99.90;;;;;;5055352;28;20369;-76
2023/01/30 09:08:06;;;;;;;;;;;-6.40;99.90;;;;;;5055730;28;19943;-76
2023/01/30 09:10:31;;;;;;;;;;;-6.30;99.90;;;;;;5053775;28;19958;-75
2023/01/30 09:12:57;;;;;;;;;;;-6.30;99.90;;;;;;5054846;28;20370;-74
2023/01/30 09:15:23;;;;;;;;;;;-6.30;99.90;;;;;;5055406;28;19920;-74
2023/01/30 09:17:50;;;;;;;;;;;-6.20;99.90;;;;;;5054944;28;19913;-74
2023/01/30 09:20:17;;;;;;;;;;;-6.10;99.90;;;;;;5055032;28;19955;-74
2023/01/30 09:22:43;;;;;;;;;;;-5.90;99.90;;;;;;5054918;28;20403;-74
2023/01/30 09:25:08;;;;;;;;;;;-5.70;99.90;;;;;;5055394;28;20011;-74
2023/01/30 09:27:35;;;;;;;;;;;-5.50;99.90;;;;;;5054909;28;19935;-73
2023/01/30 09:30:01;;;;;;;;;;;-5.20;99.90;;;;;;5054730;28;19917;-74
2023/01/30 09:32:27;;;;;;;;;;;-4.90;99.90;;;;;;5053692;28;19962;-75
2023/01/30 09:34:52;;;;;;;;;;;-4.60;99.90;;;;;;5053307;28;19940;-74
2023/01/30 09:37:18;;;;;;;;;;;-4.30;99.90;;;;;;5054867;28;20380;-74
2023/01/30 09:39:43;;;;;;;;;;;-4.10;99.90;;;;;;5054940;28;19917;-74
2023/01/30 09:42:28;;;;;;;;;;;-3.90;99.90;;;;;;5036844;28;20376;-75
2023/01/30 09:44:53;;;;;;;;;;;-3.90;99.90;;;;;;5054227;28;19975;-74
2023/01/30 09:47:22;;;;;;;;;;;-3.70;99.90;;;;;;5054194;28;20369;-74
2023/01/30 09:49:54;;;;;;;;;;;-3.70;99.90;;;;;;5054501;28;19915;-74
2023/01/30 09:52:26;;;;;;;;;;;-3.70;99.90;;;;;;5053412;28;19909;-74
2023/01/30 09:54:54;;;;;;;;;;;-3.50;99.90;;;;;;5054855;28;19932;-74
2023/01/30 09:57:21;;;;;;;;;;;-3.30;99.90;;;;;;5054319;28;19909;-74
2023/01/30 09:59:52;;;;;;;;;;;-3.10;99.90;;;;;;5054585;28;19939;-74
2023/01/30 10:02:38;;;;;;;;;;;-2.90;99.90;;;;;;5054412;28;19958;-75
2023/01/30 10:05:04;;;;;;;;;;;-2.70;99.90;;;;;;5053955;28;20018;-74
2023/01/30 10:07:35;;;;;;;;;;;-2.60;99.90;;;;;;5054398;28;19913;-74
2023/01/30 10:10:19;;;;;;;;;;;-2.60;99.90;;;;;;5054200;28;19909;-74
2023/01/30 10:12:50;;;;;;;;;;;-2.60;99.90;;;;;;5053815;28;20380;-74
2023/01/30 10:15:22;;;;;;;;;;;-2.60;99.90;;;;;;5054432;28;19909;-74
2023/01/30 10:17:57;;;;;;;;;;;-2.60;99.90;;;;;;5054267;28;20392;-74
2023/01/30 10:20:30;;;;;;;;;;;-2.70;99.90;;;;;;5053866;28;20349;-74
2023/01/30 10:23:14;;;;;;;;;;;-2.60;99.90;;;;;;5054007;28;19913;-74
2023/01/30 10:25:54;;;;;;;;;;;-2.60;99.90;;;;;;5054114;28;19920;-74
2023/01/30 10:28:29;;;;;;;;;;;-2.40;99.90;;;;;;5053922;28;19917;-74
2023/01/30 10:30:58;;;;;;;;;;;-2.40;99.90;;;;;;5054500;28;19913;-74
2023/01/30 10:33:27;;;;;;;;;;;-2.30;99.90;;;;;;5052816;28;19916;-74
2023/01/30 10:36:03;;;;;;;;;;;-2.20;99.90;;;;;;5053992;28;19952;-75
2023/01/30 10:38:31;;;;;;;;;;;-2.10;99.90;;;;;;5053680;28;19909;-75
2023/01/30 10:41:01;;;;;;;;;;;-1.90;99.90;;;;;;5053756;28;19908;-74
2023/01/30 10:43:38;;;;;;;;;;;-1.90;99.90;;;;;;5053525;28;19913;-73
2023/01/30 10:46:30;;;;;;;;;;;-1.80;99.90;;;;;;5053703;28;20003;-74
2023/01/30 10:49:14;;;;;;;;;;;-1.80;99.90;;;;;;5052581;28;19913;-74
2023/01/30 10:51:40;;;;;;;;;;;-1.80;99.90;;;;;;5053619;28;19952;-74
2023/01/30 10:54:13;;;;;;;;;;;-1.80;99.90;;;;;;5053755;28;19943;-74
2023/01/30 10:56:45;;;;;;;;;;;-1.80;99.90;;;;;;5054389;28;19975;-74
2023/01/30 10:59:22;;;;;;;;;;;-1.80;99.90;;;;;;5057702;28;19920;-75
2023/01/30 11:02:17;;;;;;;;;;;-1.70;99.90;;;;;;5057654;28;19909;-75
2023/01/30 11:04:43;;;;;;;;;;;-1.80;99.90;;;;;;4986538;28;19914;-74
2023/01/30 11:07:08;;;;;;;;;;;-1.70;99.90;;;;;;5057600;28;19911;-74
2023/01/30 11:09:38;;;;;;;;;;;-1.60;99.90;;;;;;5056599;28;20096;-73
2023/01/30 11:12:04;;;;;;;;;;;-1.60;99.90;;;;;;5057000;28;19908;-74
2023/01/30 11:14:48;;;;;;;;;;;-1.50;99.90;;;;;;5057408;28;19916;-74
2023/01/30 11:17:15;;;;;;;;;;;-1.50;99.90;;;;;;5057619;28;19909;-73
2023/01/30 11:19:40;;;;;;;;;;;-1.50;99.90;;;;;;5056998;28;20384;-72
2023/01/30 11:22:11;;;;;;;;;;;-1.40;99.90;;;;;;5058016;28;19986;-72
2023/01/30 11:24:41;;;;;;;;;;;-1.40;99.90;;;;;;5057535;28;19956;-72
2023/01/30 11:27:16;;;;;;;;;;;-1.40;99.90;;;;;;5055865;28;19909;-72
2023/01/30 11:29:42;;;;;;;;;;;-1.30;99.90;;;;;;5056341;28;19921;-72
2023/01/30 11:32:13;;;;;;;;;;;-1.20;99.90;;;;;;5057654;28;19920;-72
2023/01/30 11:34:40;;;;;;;;;;;-1.00;99.90;;;;;;5057046;28;20046;-72
2023/01/30 11:37:14;;;;;;;;;;;-0.90;99.90;;;;;;5056983;28;19909;-72
2023/01/30 11:39:47;;;;;;;;;;;-0.70;99.90;;;;;;5056822;28;19963;-72
2023/01/30 11:42:12;;;;;;;;;;;-0.60;99.90;;;;;;5057182;28;19974;-72
2023/01/30 11:44:40;;;;;;;;;;;-0.60;99.90;;;;;;5057159;28;19913;-72
2023/01/30 11:47:08;;;;;;;;;;;-0.50;99.90;;;;;;5057076;28;19915;-72
2023/01/30 11:49:40;;;;;;;;;;;-0.50;99.90;;;;;;5056812;28;20412;-72
2023/01/30 11:52:06;;;;;;;;;;;-0.50;99.90;;;;;;5057150;28;19936;-74
2023/01/30 11:54:33;;;;;;;;;;;-0.60;99.90;;;;;;5056098;28;19913;-75
2023/01/30 11:57:01;;;;;;;;;;;-0.60;99.90;;;;;;5056880;28;19915;-74
2023/01/30 11:59:33;;;;;;;;;;;-0.60;99.90;;;;;;5056259;28;19913;-73
2023/01/30 12:02:19;;;;;;;;;;;-0.60;99.90;;;;;;5056599;28;19909;-73
2023/01/30 12:04:45;;;;;;;;;;;-0.50;99.90;;;;;;5057053;28;19909;-74
2023/01/30 12:07:22;;;;;;;;;;;-0.50;99.90;;;;;;5055367;28;19909;-74
2023/01/30 12:09:51;;;;;;;;;;;-0.40;99.90;;;;;;5055675;28;19909;-74
2023/01/30 12:12:28;;;;;;;;;;;-0.30;99.90;;;;;;5056198;28;19909;-74
2023/01/30 12:14:59;;;;;;;;;;;-0.10;99.90;;;;;;5056871;28;20373;-74
2023/01/30 12:17:37;;;;;;;;;;;-0.10;99.90;;;;;;5056707;28;19959;-76
2023/01/30 12:20:16;;;;;;;;;;;0.00;99.90;;;;;;5056522;28;20440;-72
2023/01/30 12:22:54;;;;;;;;;;;0.10;99.90;;;;;;5056664;28;19952;-72
2023/01/30 12:25:29;;;;;;;;;;;0.10;99.90;;;;;;5056174;28;19944;-75
2023/01/30 12:28:01;;;;;;;;;;;0.20;99.90;;;;;;5055761;28;19916;-75
2023/01/30 12:30:53;;;;;;;;;;;0.30;99.90;;;;;;5054674;28;20404;-72
2023/01/30 12:33:20;;;;;;;;;;;0.30;99.90;;;;;;5052267;28;19916;-72
2023/01/30 12:35:45;;;;;;;;;;;0.50;99.90;;;;;;5055392;28;20507;-72
2023/01/30 12:38:23;;;;;;;;;;;0.50;99.90;;;;;;5056157;28;20385;-72
2023/01/30 12:40:53;;;;;;;;;;;0.60;99.90;;;;;;5063253;28;19913;-71
2023/01/30 12:43:24;;;;;;;;;;;0.70;99.90;;;;;;5063278;28;19916;-71
2023/01/30 12:45:58;;;;;;;;;;;0.80;99.90;;;;;;5062672;28;19979;-72
2023/01/30 12:48:27;;;;;;;;;;;0.80;99.90;;;;;;5062339;28;19915;-71
2023/01/30 12:51:00;;;;;;;;;;;0.90;99.90;;;;;;5059587;28;19909;-72
2023/01/30 12:53:44;;;;;;;;;;;1.00;99.90;;;;;;5055614;28;20308;-71
2023/01/30 12:56:23;;;;;;;;;;;1.10;99.90;;;;;;5055973;28;20379;-71
2023/01/30 12:59:13;;;;;;;;;;;1.20;99.90;;;;;;5055367;28;19912;-71
2023/01/30 13:01:53;;;;;;;;;;;1.20;99.90;;;;;;5055345;28;19991;-71
2023/01/30 13:04:28;;;;;;;;;;;1.30;99.90;;;;;;5055222;28;19995;-71
2023/01/30 13:06:54;;;;;;;;;;;1.40;99.90;;;;;;5055246;28;19963;-71
2023/01/30 13:09:19;;;;;;;;;;;1.60;99.90;;;;;;5055033;28;19908;-71
2023/01/30 13:11:45;;;;;;;;;;;1.80;99.90;;;;;;5055185;28;19923;-71
2023/01/30 13:14:13;;;;;;;;;;;2.00;99.90;;;;;;5054813;28;19954;-71
2023/01/30 13:16:48;;;;;;;;;;;2.10;99.90;;;;;;5055002;28;20375;-71
2023/01/30 13:19:17;;;;;;;;;;;2.20;99.90;;;;;;5055123;28;19913;-71
2023/01/30 13:21:50;;;;;;;;;;;2.20;99.90;;;;;;5054906;28;19908;-71
2023/01/30 13:24:23;;;;;;;;;;;2.10;99.90;;;;;;5053634;28;20281;-71
2023/01/30 13:26:50;;;;;;;;;;;2.00;99.90;;;;;;5055122;28;20369;-71
2023/01/30 13:29:34;;;;;;;;;;;2.00;99.90;;;;;;5054508;28;19923;-71
2023/01/30 13:32:02;;;;;;;;;;;1.80;99.90;;;;;;5054772;28;20292;-71
2023/01/30 13:34:45;;;;;;;;;;;1.60;99.90;;;;;;5054895;28;19909;-71
2023/01/30 13:37:12;;;;;;;;;;;1.50;99.90;;;;;;5053452;28;19909;-71
2023/01/30 13:39:58;;;;;;;;;;;1.40;99.90;;;;;;5054762;28;19917;-71
2023/01/30 13:42:31;;;;;;;;;;;1.30;99.90;;;;;;5054578;28;19909;-71
2023/01/30 13:44:57;;;;;;;;;;;1.20;99.90;;;;;;5054689;28;19909;-71
2023/01/30 13:47:26;;;;;;;;;;;1.10;99.90;;;;;;5055010;28;19913;-71
2023/01/30 13:49:58;;;;;;;;;;;1.00;99.90;;;;;;5054918;28;20274;-71
2023/01/30 13:52:36;;;;;;;;;;;1.00;99.90;;;;;;5054722;28;19909;-71
2023/01/30 13:55:01;;;;;;;;;;;0.90;99.90;;;;;;5054894;28;19962;-71
2023/01/30 13:57:53;;;;;;;;;;;0.90;99.90;;;;;;5054327;28;19912;-72
2023/01/30 14:00:22;;;;;;;;;;;0.90;99.90;;;;;;5050985;28;19917;-71
2023/01/30 14:03:20;;;;;;;;;;;0.90;99.90;;;;;;5054440;28;19909;-71
2023/01/30 14:05:59;;;;;;;;;;;0.80;99.90;;;;;;5020825;28;19920;-71
2023/01/30 14:08:43;;;;;;;;;;;0.90;99.90;;;;;;5053938;28;19955;-71
2023/01/30 14:11:24;;;;;;;;;;;0.80;99.90;;;;;;5053976;28;19909;-71
2023/01/30 14:13:54;;;;;;;;;;;0.80;99.90;;;;;;5053844;28;19999;-71
2023/01/30 14:16:20;;;;;;;;;;;0.80;99.90;;;;;;5054159;28;19993;-71
2023/01/30 14:18:45;;;;;;;;;;;0.80;99.90;;;;;;5053824;28;19977;-71
2023/01/30 14:21:11;;;;;;;;;;;0.80;99.90;;;;;;5052902;28;19917;-71
2023/01/30 14:23:36;;;;;;;;;;;0.80;99.90;;;;;;5053912;28;19909;-71
2023/01/30 14:26:02;;;;;;;;;;;0.80;99.90;;;;;;5054606;28;20008;-71
2023/01/30 14:28:27;;;;;;;;;;;0.80;99.90;;;;;;5053691;28;19920;-71
2023/01/30 14:30:54;;;;;;;;;;;0.80;99.90;;;;;;5053810;28;19909;-71
2023/01/30 14:33:19;;;;;;;;;;;0.90;99.90;;;;;;5053466;28;20338;-71
2023/01/30 14:35:57;;;;;;;;;;;0.90;99.90;;;;;;5053609;28;20003;-71